createdAt,value
2018-03-02T00:00:02.309Z,56.62
2018-03-02T00:01:02.451Z,57.00
2018-03-02T00:02:02.589Z,56.81
2018-03-02T00:03:02.729Z,56.46
2018-03-02T00:04:02.874Z,56.75
2018-03-02T00:05:03.020Z,56.44
2018-03-02T00:06:03.166Z,56.75
2018-03-02T00:07:03.314Z,57.00
2018-03-02T00:08:03.444Z,57.00
2018-03-02T00:09:03.585Z,56.81
2018-03-02T00:10:03.751Z,57.10
2018-03-02T00:11:03.872Z,57.19
2018-03-02T00:12:04.011Z,57.50
2018-03-02T00:13:04.160Z,57.38
2018-03-02T00:14:04.304Z,57.00
2018-03-02T00:15:04.442Z,57.10
2018-03-02T00:16:04.592Z,57.19
2018-03-02T00:17:04.728Z,57.66
2018-03-02T00:18:04.875Z,57.47
2018-03-02T00:19:05.012Z,57.47
2018-03-02T00:20:05.148Z,57.66
2018-03-02T00:21:05.296Z,57.85
2018-03-02T00:22:05.437Z,57.66
2018-03-02T00:23:05.575Z,57.85
2018-03-02T00:24:05.718Z,57.66
2018-03-02T00:25:05.863Z,57.76
2018-03-02T00:26:06.004Z,57.95
2018-03-02T00:27:06.146Z,58.04
2018-03-02T00:28:06.296Z,58.23
2018-03-02T00:29:06.447Z,58.04
2018-03-02T00:30:06.593Z,57.85
2018-03-02T00:31:06.719Z,57.95
2018-03-02T00:32:06.862Z,58.23
2018-03-02T00:33:07.003Z,58.04
2018-03-02T00:34:07.146Z,58.51
2018-03-02T00:35:07.287Z,58.42
2018-03-02T00:36:07.423Z,58.51
2018-03-02T00:37:07.570Z,58.51
2018-03-02T00:38:07.710Z,58.51
2018-03-02T00:39:07.850Z,58.51
2018-03-02T00:40:07.995Z,58.61
2018-03-02T00:41:08.145Z,58.51
2018-03-02T00:42:08.283Z,58.61
2018-03-02T00:43:08.422Z,58.98
2018-03-02T00:44:08.573Z,58.89
2018-03-02T00:45:08.704Z,58.70
2018-03-02T00:46:08.846Z,58.42
2018-03-02T00:47:08.989Z,58.89
2018-03-02T00:48:09.177Z,59.45
2018-03-02T00:49:09.274Z,59.27
2018-03-02T00:50:09.426Z,59.36
2018-03-02T00:52:09.701Z,59.36
2018-03-02T00:53:09.846Z,59.27
2018-03-02T00:54:09.987Z,59.17
2018-03-02T00:55:10.127Z,59.36
2018-03-02T00:56:10.268Z,59.17
2018-03-02T00:57:10.413Z,59.45
2018-03-02T00:58:10.554Z,59.74
2018-03-02T00:59:10.699Z,59.45
2018-03-02T01:00:10.837Z,59.55
2018-03-02T01:01:10.981Z,59.55
2018-03-02T01:02:11.148Z,59.55
2018-03-02T01:03:11.271Z,59.45
2018-03-02T01:04:11.412Z,59.64
2018-03-02T01:05:11.556Z,59.83
2018-03-02T01:06:11.699Z,59.83
2018-03-02T01:07:11.832Z,59.45
2018-03-02T01:08:11.974Z,59.64
2018-03-02T01:09:12.123Z,59.55
2018-03-02T01:10:12.260Z,59.74
2018-03-02T01:11:12.401Z,59.74
2018-03-02T01:12:12.537Z,60.02
2018-03-02T01:13:12.685Z,59.92
2018-03-02T01:14:12.816Z,60.30
2018-03-02T01:15:12.962Z,60.11
2018-03-02T01:16:13.105Z,60.30
2018-03-02T01:17:13.239Z,60.11
2018-03-02T01:18:13.380Z,60.11
2018-03-02T01:19:13.524Z,60.49
2018-03-02T01:20:13.668Z,60.77
2018-03-02T01:21:13.806Z,60.30
2018-03-02T01:22:13.950Z,60.58
2018-03-02T01:23:14.094Z,60.39
2018-03-02T01:24:14.231Z,60.30
2018-03-02T01:25:14.381Z,60.39
2018-03-02T01:26:14.514Z,60.30
2018-03-02T01:27:14.660Z,60.58
2018-03-02T01:28:14.800Z,60.58
2018-03-02T01:29:14.940Z,60.58
2018-03-02T01:30:15.084Z,60.77
2018-03-02T01:31:15.230Z,60.68
2018-03-02T01:32:15.367Z,60.77
2018-03-02T01:33:15.508Z,60.86
2018-03-02T01:34:15.659Z,60.96
2018-03-02T01:35:15.793Z,60.68
2018-03-02T01:36:15.938Z,60.86
2018-03-02T01:37:16.080Z,60.58
2018-03-02T01:38:16.225Z,60.86
2018-03-02T01:39:16.356Z,60.86
2018-03-02T01:40:16.497Z,60.86
2018-03-02T01:41:16.643Z,60.68
2018-03-02T01:42:16.781Z,60.77
2018-03-02T01:43:16.925Z,60.77
2018-03-02T01:44:17.060Z,60.68
2018-03-02T01:45:17.209Z,60.77
2018-03-02T01:46:17.345Z,61.43
2018-03-02T01:47:17.487Z,61.43
2018-03-02T01:48:17.640Z,61.24
2018-03-02T01:49:17.772Z,61.05
2018-03-02T01:50:17.913Z,60.96
2018-03-02T01:51:18.055Z,61.15
2018-03-02T01:52:18.198Z,61.05
2018-03-02T01:53:18.341Z,61.15
2018-03-02T01:54:18.486Z,61.24
2018-03-02T01:55:18.626Z,61.71
2018-03-02T01:56:18.768Z,62.09
2018-03-02T01:57:18.914Z,61.99
2018-03-02T01:58:19.054Z,61.90
2018-03-02T01:59:19.202Z,61.99
2018-03-02T02:00:19.339Z,62.09
2018-03-02T02:01:19.482Z,61.90
2018-03-02T02:02:19.619Z,61.71
2018-03-02T02:03:19.765Z,61.52
2018-03-02T02:04:19.904Z,61.81
2018-03-02T02:05:20.048Z,61.90
2018-03-02T02:06:20.187Z,61.81
2018-03-02T02:07:20.329Z,61.90
2018-03-02T02:08:20.472Z,62.18
2018-03-02T02:09:20.616Z,61.90
2018-03-02T02:10:20.756Z,62.09
2018-03-02T02:11:20.897Z,62.47
2018-03-02T02:12:21.036Z,62.28
2018-03-02T02:13:21.173Z,62.09
2018-03-02T02:14:21.316Z,62.37
2018-03-02T02:15:21.449Z,62.56
2018-03-02T02:16:21.595Z,62.75
2018-03-02T02:17:21.990Z,62.65
2018-03-02T02:18:21.879Z,62.65
2018-03-02T02:19:22.018Z,62.56
2018-03-02T02:20:22.422Z,62.47
2018-03-02T02:21:22.307Z,62.56
2018-03-02T02:22:22.445Z,62.47
2018-03-02T02:23:22.598Z,62.47
2018-03-02T02:24:22.736Z,62.65
2018-03-02T02:25:22.867Z,62.56
2018-03-02T02:26:23.012Z,62.75
2018-03-02T02:27:23.156Z,62.56
2018-03-02T02:28:23.295Z,62.65
2018-03-02T02:29:23.443Z,63.22
2018-03-02T02:30:23.583Z,63.32
2018-03-02T02:31:23.724Z,63.03
2018-03-02T02:32:23.869Z,63.13
2018-03-02T02:33:24.026Z,63.22
2018-03-02T02:34:24.156Z,63.13
2018-03-02T02:35:24.291Z,63.03
2018-03-02T02:36:24.432Z,62.94
2018-03-02T02:37:24.574Z,62.84
2018-03-02T02:38:24.716Z,63.03
2018-03-02T02:39:24.863Z,62.94
2018-03-02T02:40:25.001Z,63.13
2018-03-02T02:41:25.142Z,63.32
2018-03-02T02:42:25.282Z,63.32
2018-03-02T02:43:25.423Z,63.03
2018-03-02T02:44:25.628Z,63.03
2018-03-02T02:45:25.714Z,62.94
2018-03-02T02:46:25.847Z,63.41
2018-03-02T02:47:25.997Z,63.79
2018-03-02T02:48:26.140Z,63.79
2018-03-02T02:49:26.278Z,63.32
2018-03-02T02:50:26.417Z,63.50
2018-03-02T02:51:26.574Z,63.88
2018-03-02T02:52:26.709Z,63.79
2018-03-02T02:53:26.838Z,63.50
2018-03-02T02:54:26.984Z,63.41
2018-03-02T02:55:27.121Z,63.69
2018-03-02T02:56:27.264Z,63.69
2018-03-02T02:57:27.406Z,63.79
2018-03-02T02:58:27.546Z,63.60
2018-03-02T02:59:27.770Z,63.88
2018-03-02T03:00:27.838Z,63.60
2018-03-02T03:01:27.979Z,63.88
2018-03-02T03:02:28.119Z,63.41
2018-03-02T03:03:28.259Z,63.41
2018-03-02T03:04:28.401Z,63.41
2018-03-02T03:05:28.542Z,63.79
2018-03-02T03:06:28.678Z,63.60
2018-03-02T03:07:28.821Z,63.69
2018-03-02T03:08:28.960Z,63.69
2018-03-02T03:09:29.105Z,63.69
2018-03-02T03:10:29.245Z,63.60
2018-03-02T03:11:29.643Z,63.50
2018-03-02T03:12:29.540Z,63.32
2018-03-02T03:13:29.683Z,63.41
2018-03-02T03:15:29.959Z,63.69
2018-03-02T03:16:30.110Z,64.07
2018-03-02T03:17:30.245Z,63.79
2018-03-02T03:18:30.388Z,63.69
2018-03-02T03:19:30.527Z,63.60
2018-03-02T03:20:30.671Z,63.98
2018-03-02T03:21:30.811Z,63.98
2018-03-02T03:22:30.959Z,63.69
2018-03-02T03:23:31.100Z,63.98
2018-03-02T03:24:31.244Z,63.79
2018-03-02T03:25:31.387Z,63.79
2018-03-02T03:26:31.526Z,63.98
2018-03-02T03:27:31.663Z,63.69
2018-03-02T03:28:31.801Z,63.98
2018-03-02T03:29:31.950Z,63.41
2018-03-02T03:30:32.086Z,63.69
2018-03-02T03:31:32.228Z,63.69
2018-03-02T03:32:32.376Z,63.50
2018-03-02T03:33:32.515Z,63.60
2018-03-02T03:34:32.654Z,63.69
2018-03-02T03:35:32.801Z,63.50
2018-03-02T03:36:32.937Z,63.69
2018-03-02T03:37:33.085Z,63.79
2018-03-02T03:38:33.224Z,64.07
2018-03-02T03:39:33.361Z,64.26
2018-03-02T03:40:33.506Z,64.16
2018-03-02T03:41:33.945Z,64.26
2018-03-02T03:42:33.787Z,64.07
2018-03-02T03:43:33.929Z,64.16
2018-03-02T03:44:34.072Z,63.88
2018-03-02T03:45:34.206Z,64.45
2018-03-02T03:46:34.351Z,64.26
2018-03-02T03:47:34.771Z,64.35
2018-03-02T03:48:34.632Z,64.35
2018-03-02T03:49:34.771Z,64.73
2018-03-02T03:50:34.914Z,64.54
2018-03-02T03:51:35.056Z,64.45
2018-03-02T03:52:35.195Z,64.54
2018-03-02T03:53:35.342Z,64.54
2018-03-02T03:54:35.487Z,64.35
2018-03-02T03:55:35.621Z,64.54
2018-03-02T03:56:36.020Z,64.45
2018-03-02T03:57:35.906Z,64.35
2018-03-02T03:58:36.049Z,64.35
2018-03-02T03:59:36.195Z,64.35
2018-03-02T04:00:36.325Z,64.07
2018-03-02T04:01:36.468Z,64.45
2018-03-02T04:02:36.610Z,64.35
2018-03-02T04:03:36.751Z,64.73
2018-03-02T04:04:36.891Z,64.45
2018-03-02T04:05:37.032Z,64.45
2018-03-02T04:06:37.180Z,64.64
2018-03-02T04:07:37.338Z,64.64
2018-03-02T04:08:37.463Z,64.73
2018-03-02T04:09:37.601Z,64.45
2018-03-02T04:10:37.740Z,64.54
2018-03-02T04:11:37.879Z,64.35
2018-03-02T04:12:38.023Z,65.20
2018-03-02T04:13:38.212Z,65.01
2018-03-02T04:14:38.306Z,65.11
2018-03-02T04:15:38.444Z,64.83
2018-03-02T04:16:38.590Z,65.11
2018-03-02T04:17:38.725Z,65.11
2018-03-02T04:18:38.873Z,65.30
2018-03-02T04:19:39.012Z,65.11
2018-03-02T04:20:39.151Z,65.30
2018-03-02T04:21:39.290Z,64.92
2018-03-02T04:22:39.436Z,64.92
2018-03-02T04:23:39.576Z,64.64
2018-03-02T04:24:39.718Z,65.20
2018-03-02T04:25:39.862Z,64.83
2018-03-02T04:26:39.997Z,65.30
2018-03-02T04:27:40.141Z,65.11
2018-03-02T04:28:40.283Z,65.11
2018-03-02T04:29:40.419Z,65.17
2018-03-02T04:30:40.561Z,65.48
2018-03-02T04:31:40.702Z,65.48
2018-03-02T04:32:40.847Z,65.36
2018-03-02T04:33:40.997Z,65.26
2018-03-02T04:34:41.128Z,65.45
2018-03-02T04:35:41.268Z,65.55
2018-03-02T04:36:41.408Z,65.83
2018-03-02T04:37:41.558Z,65.48
2018-03-02T04:38:41.705Z,65.58
2018-03-02T04:39:41.835Z,65.39
2018-03-02T04:40:41.984Z,65.30
2018-03-02T04:41:42.122Z,65.17
2018-03-02T04:42:42.266Z,65.30
2018-03-02T04:43:42.407Z,65.48
2018-03-02T04:44:42.549Z,65.20
2018-03-02T04:45:42.691Z,64.83
2018-03-02T04:46:42.838Z,65.48
2018-03-02T04:47:42.986Z,65.58
2018-03-02T04:48:43.136Z,65.30
2018-03-02T04:49:43.277Z,65.30
2018-03-02T04:50:43.423Z,65.30
2018-03-02T04:51:43.555Z,65.58
2018-03-02T04:52:43.707Z,65.48
2018-03-02T04:53:43.838Z,65.39
2018-03-02T04:54:43.978Z,65.01
2018-03-02T04:55:44.122Z,65.30
2018-03-02T04:56:44.263Z,65.58
2018-03-02T04:57:44.406Z,64.83
2018-03-02T04:58:44.547Z,65.20
2018-03-02T04:59:44.689Z,65.20
2018-03-02T05:00:44.833Z,65.11
2018-03-02T05:01:44.972Z,64.83
2018-03-02T05:02:45.122Z,64.83
2018-03-02T05:03:45.258Z,65.01
2018-03-02T05:04:45.395Z,65.11
2018-03-02T05:05:45.543Z,65.01
2018-03-02T05:06:45.683Z,65.39
2018-03-02T05:07:45.820Z,65.20
2018-03-02T05:08:45.965Z,65.30
2018-03-02T05:09:46.110Z,64.98
2018-03-02T05:10:46.248Z,65.01
2018-03-02T05:11:46.396Z,65.11
2018-03-02T05:12:46.537Z,65.11
2018-03-02T05:13:46.675Z,65.01
2018-03-02T05:14:46.817Z,65.01
2018-03-02T05:15:46.954Z,65.11
2018-03-02T05:16:47.096Z,64.92
2018-03-02T05:17:47.239Z,65.01
2018-03-02T05:18:47.382Z,65.01
2018-03-02T05:19:47.530Z,65.11
2018-03-02T05:20:47.667Z,65.01
2018-03-02T05:21:47.807Z,64.83
2018-03-02T05:22:47.956Z,64.73
2018-03-02T05:23:48.093Z,64.64
2018-03-02T05:24:48.233Z,64.45
2018-03-02T05:25:48.375Z,64.45
2018-03-02T05:26:48.520Z,64.35
2018-03-02T05:27:48.658Z,64.45
2018-03-02T05:28:48.796Z,65.01
2018-03-02T05:29:48.935Z,64.79
2018-03-02T05:30:49.073Z,65.07
2018-03-02T05:31:49.219Z,65.55
2018-03-02T05:32:49.361Z,65.36
2018-03-02T05:33:49.501Z,65.55
2018-03-02T05:34:49.639Z,65.11
2018-03-02T05:35:49.771Z,65.36
2018-03-02T05:36:49.917Z,65.45
2018-03-02T05:37:50.058Z,65.55
2018-03-02T05:38:50.199Z,65.20
2018-03-02T05:39:50.345Z,65.11
2018-03-02T05:40:50.483Z,65.26
2018-03-02T05:41:50.626Z,65.36
2018-03-02T05:42:50.770Z,65.55
2018-03-02T05:43:50.906Z,65.07
2018-03-02T05:44:51.051Z,65.17
2018-03-02T05:45:51.221Z,65.36
2018-03-02T05:46:51.330Z,65.83
2018-03-02T05:47:51.480Z,65.83
2018-03-02T05:48:51.614Z,65.92
2018-03-02T05:49:51.754Z,66.02
2018-03-02T05:50:51.901Z,66.30
2018-03-02T05:51:52.038Z,65.92
2018-03-02T05:52:52.182Z,65.92
2018-03-02T05:53:52.321Z,66.02
2018-03-02T05:54:52.464Z,66.30
2018-03-02T05:55:52.604Z,65.48
2018-03-02T05:56:52.759Z,65.45
2018-03-02T05:57:52.891Z,65.67
2018-03-02T05:58:53.031Z,65.26
2018-03-02T05:59:53.171Z,65.17
2018-03-02T06:00:53.315Z,65.45
2018-03-02T06:01:53.449Z,65.83
2018-03-02T06:02:53.586Z,65.92
2018-03-02T06:03:53.735Z,65.58
2018-03-02T06:04:53.878Z,65.55
2018-03-02T06:05:54.033Z,65.55
2018-03-02T06:06:54.164Z,65.48
2018-03-02T06:07:54.324Z,65.67
2018-03-02T06:08:54.442Z,65.30
2018-03-02T06:09:54.589Z,65.36
2018-03-02T06:10:54.732Z,65.17
2018-03-02T06:11:54.887Z,65.26
2018-03-02T06:12:55.008Z,65.92
2018-03-02T06:13:55.145Z,65.26
2018-03-02T06:14:55.286Z,66.30
2018-03-02T06:15:55.429Z,65.83
2018-03-02T06:16:55.573Z,65.92
2018-03-02T06:17:55.720Z,66.02
2018-03-02T06:18:55.856Z,65.92
2018-03-02T06:19:56.263Z,65.92
2018-03-02T06:20:56.139Z,65.67
2018-03-02T06:21:56.284Z,65.26
2018-03-02T06:22:56.417Z,65.58
2018-03-02T06:23:56.563Z,65.30
2018-03-02T06:24:56.700Z,65.07
2018-03-02T06:25:56.849Z,65.39
2018-03-02T06:26:57.002Z,65.45
2018-03-02T06:27:57.125Z,65.26
2018-03-02T06:28:57.266Z,65.39
2018-03-02T06:29:57.415Z,65.36
2018-03-02T06:30:57.551Z,65.48
2018-03-02T06:31:57.689Z,65.36
2018-03-02T06:32:57.834Z,65.20
2018-03-02T06:33:57.977Z,65.17
2018-03-02T06:35:58.258Z,65.36
2018-03-02T06:36:58.400Z,65.55
2018-03-02T06:37:58.544Z,65.48
2018-03-02T06:38:58.687Z,65.20
2018-03-02T06:39:58.831Z,65.30
2018-03-02T06:40:58.973Z,65.20
2018-03-02T06:41:59.122Z,65.30
2018-03-02T06:42:59.257Z,65.11
2018-03-02T06:43:59.398Z,65.01
2018-03-02T06:44:59.548Z,65.20
2018-03-02T06:45:59.684Z,65.30
2018-03-02T06:46:59.826Z,64.83
2018-03-02T06:47:59.962Z,64.64
2018-03-02T06:49:00.111Z,64.92
2018-03-02T06:51:00.377Z,64.92
2018-03-02T06:52:00.516Z,64.92
2018-03-02T06:53:00.660Z,65.11
2018-03-02T06:54:00.803Z,64.54
2018-03-02T06:55:00.946Z,65.11
2018-03-02T06:56:01.087Z,65.01
2018-03-02T06:57:01.231Z,65.01
2018-03-02T06:58:01.372Z,64.79
2018-03-02T06:59:01.517Z,65.26
2018-03-02T07:00:01.657Z,65.11
2018-03-02T07:01:01.795Z,65.17
2018-03-02T07:02:02.446Z,64.92
2018-03-02T07:03:02.088Z,65.11
2018-03-02T07:04:02.222Z,65.11
2018-03-02T07:05:02.387Z,65.01
2018-03-02T07:06:02.505Z,64.92
2018-03-02T07:07:02.650Z,65.01
2018-03-02T07:08:02.790Z,65.01
2018-03-02T07:09:02.929Z,65.11
2018-03-02T07:10:03.081Z,65.30
2018-03-02T07:11:03.214Z,65.30
2018-03-02T07:12:03.353Z,65.39
2018-03-02T07:13:03.496Z,64.83
2018-03-02T07:14:03.642Z,64.54
2018-03-02T07:15:03.785Z,64.64
2018-03-02T07:16:03.921Z,64.83
2018-03-02T07:17:04.398Z,64.64
2018-03-02T07:18:04.211Z,64.45
2018-03-02T07:19:04.360Z,64.73
2018-03-02T07:20:04.501Z,65.11
2018-03-02T07:21:04.644Z,65.01
2018-03-02T07:22:04.781Z,65.11
2018-03-02T07:23:04.916Z,65.01
2018-03-02T07:24:05.067Z,65.11
2018-03-02T07:25:05.203Z,64.73
2018-03-02T07:26:05.625Z,64.83
2018-03-02T07:27:05.479Z,64.26
2018-03-02T07:28:05.627Z,64.45
2018-03-02T07:29:06.047Z,64.73
2018-03-02T07:30:05.911Z,65.01
2018-03-02T07:31:06.056Z,65.01
2018-03-02T07:32:06.470Z,65.01
2018-03-02T07:33:06.337Z,65.11
2018-03-02T07:34:06.481Z,64.83
2018-03-02T07:35:06.626Z,65.01
2018-03-02T07:36:06.760Z,65.01
2018-03-02T07:37:06.906Z,64.83
2018-03-02T07:38:07.043Z,65.01
2018-03-02T07:39:07.184Z,64.92
2018-03-02T07:40:07.329Z,64.45
2018-03-02T07:41:07.736Z,64.54
2018-03-02T07:42:07.610Z,64.45
2018-03-02T07:43:07.754Z,64.45
2018-03-02T07:44:08.168Z,63.88
2018-03-02T07:45:08.038Z,64.26
2018-03-02T07:46:08.183Z,63.60
2018-03-02T07:47:08.593Z,63.22
2018-03-02T07:48:08.475Z,62.37
2018-03-02T07:49:08.610Z,61.71
2018-03-02T07:50:08.748Z,61.15
2018-03-02T07:51:08.890Z,60.77
2018-03-02T07:52:09.033Z,60.14
2018-03-02T07:53:09.185Z,58.92
2018-03-02T07:54:09.322Z,58.07
2018-03-02T07:55:09.457Z,57.41
2018-03-02T07:56:09.601Z,57.41
2018-03-02T07:57:09.742Z,56.65
2018-03-02T07:58:09.881Z,56.56
2018-03-02T07:59:10.021Z,56.18
2018-03-02T08:00:10.171Z,55.71
2018-03-02T08:01:10.313Z,55.43
2018-03-02T08:02:10.456Z,55.71
2018-03-02T08:03:10.609Z,55.43
2018-03-02T08:04:10.742Z,55.43
2018-03-02T08:05:10.888Z,54.68
2018-03-02T08:06:11.030Z,54.77
2018-03-02T08:07:11.171Z,55.15
2018-03-02T08:08:11.314Z,54.77
2018-03-02T08:09:11.505Z,54.77
2018-03-02T08:10:11.603Z,55.24
2018-03-02T08:11:11.995Z,55.62
2018-03-02T08:12:11.888Z,55.80
2018-03-02T08:13:12.034Z,55.71
2018-03-02T08:14:12.425Z,55.90
2018-03-02T08:15:12.322Z,55.71
2018-03-02T08:16:12.487Z,55.71
2018-03-02T08:17:12.620Z,55.52
2018-03-02T08:18:12.752Z,55.05
2018-03-02T08:19:12.898Z,54.77
2018-03-02T08:20:13.040Z,54.39
2018-03-02T08:21:13.189Z,54.77
2018-03-02T08:22:13.337Z,54.58
2018-03-02T08:23:13.488Z,54.39
2018-03-02T08:24:13.631Z,54.49
2018-03-02T08:25:13.765Z,54.14
2018-03-02T08:26:14.164Z,53.95
2018-03-02T08:27:14.062Z,53.76
2018-03-02T08:28:14.204Z,53.66
2018-03-02T08:29:14.359Z,53.26
2018-03-02T08:30:14.498Z,53.38
2018-03-02T08:31:14.639Z,53.57
2018-03-02T08:32:14.785Z,53.29
2018-03-02T08:33:14.927Z,53.64
2018-03-02T08:34:15.082Z,53.73
2018-03-02T08:35:15.226Z,54.14
2018-03-02T08:36:15.371Z,54.02
2018-03-02T08:37:15.522Z,54.14
2018-03-02T08:38:15.660Z,53.95
2018-03-02T08:39:15.813Z,53.17
2018-03-02T08:40:15.955Z,53.57
2018-03-02T08:42:16.248Z,54.11
2018-03-02T08:43:16.391Z,54.30
2018-03-02T08:44:16.539Z,54.68
2018-03-02T08:45:16.685Z,54.58
2018-03-02T08:46:16.829Z,54.49
2018-03-02T08:47:16.978Z,54.61
2018-03-02T08:48:17.194Z,54.42
2018-03-02T08:49:17.265Z,54.14
2018-03-02T08:50:17.400Z,53.66
2018-03-02T08:51:17.551Z,53.17
2018-03-02T08:52:17.695Z,53.92
2018-03-02T08:53:17.845Z,54.02
2018-03-02T08:54:17.989Z,54.14
2018-03-02T08:55:18.136Z,54.04
2018-03-02T08:56:18.298Z,52.91
2018-03-02T08:57:18.414Z,52.44
2018-03-02T08:58:18.564Z,52.81
2018-03-02T08:59:18.707Z,53.10
2018-03-02T09:00:18.882Z,53.10
2018-03-02T09:01:19.047Z,52.81
2018-03-02T09:02:19.201Z,51.97
2018-03-02T09:03:19.347Z,51.68
2018-03-02T09:04:19.487Z,51.68
2018-03-02T09:05:19.631Z,51.68
2018-03-02T09:06:19.783Z,51.78
2018-03-02T09:07:19.938Z,51.87
2018-03-02T09:08:20.077Z,51.97
2018-03-02T09:09:20.237Z,52.25
2018-03-02T09:10:20.371Z,52.72
2018-03-02T09:11:20.508Z,52.62
2018-03-02T09:12:20.656Z,52.72
2018-03-02T09:13:20.797Z,52.34
2018-03-02T09:14:20.946Z,52.62
2018-03-02T09:15:21.095Z,52.81
2018-03-02T09:16:21.365Z,53.19
2018-03-02T09:17:21.409Z,53.00
2018-03-02T09:18:21.562Z,53.00
2018-03-02T09:19:21.691Z,52.81
2018-03-02T09:20:21.838Z,52.81
2018-03-02T09:21:21.985Z,52.53
2018-03-02T09:22:22.107Z,52.44
2018-03-02T09:23:22.272Z,52.34
2018-03-02T09:24:22.411Z,52.34
2018-03-02T09:25:22.571Z,52.91
2018-03-02T09:26:22.692Z,52.81
2018-03-02T09:27:22.837Z,53.19
2018-03-02T09:28:23.008Z,53.57
2018-03-02T09:29:23.152Z,53.85
2018-03-02T09:30:23.293Z,53.85
2018-03-02T09:31:23.443Z,53.95
2018-03-02T09:32:23.598Z,54.14
2018-03-02T09:33:23.739Z,54.04
2018-03-02T09:34:23.883Z,53.85
2018-03-02T09:35:24.029Z,54.14
2018-03-02T09:36:24.172Z,53.85
2018-03-02T09:37:24.319Z,54.04
2018-03-02T09:38:24.465Z,54.14
2018-03-02T09:39:24.611Z,53.76
2018-03-02T09:40:24.758Z,54.14
2018-03-02T09:41:24.903Z,54.23
2018-03-02T09:42:25.051Z,54.51
2018-03-02T09:43:25.190Z,54.42
2018-03-02T09:44:25.348Z,54.42
2018-03-02T09:45:25.481Z,54.33
2018-03-02T09:46:25.625Z,54.80
2018-03-02T09:47:25.769Z,54.14
2018-03-02T09:48:25.914Z,53.85
2018-03-02T09:49:26.067Z,54.33
2018-03-02T09:50:26.209Z,54.23
2018-03-02T09:51:26.351Z,54.70
2018-03-02T09:52:26.498Z,54.51
2018-03-02T09:53:26.645Z,54.89
2018-03-02T09:54:26.789Z,54.39
2018-03-02T09:55:26.938Z,54.86
2018-03-02T09:56:27.083Z,54.86
2018-03-02T09:57:27.229Z,54.68
2018-03-02T09:58:27.371Z,55.27
2018-03-02T09:59:27.517Z,54.99
2018-03-02T10:00:27.676Z,54.80
2018-03-02T10:01:27.812Z,54.42
2018-03-02T10:02:27.960Z,54.33
2018-03-02T10:03:28.105Z,54.33
2018-03-02T10:04:28.240Z,54.61
2018-03-02T10:05:28.388Z,54.42
2018-03-02T10:06:28.537Z,54.61
2018-03-02T10:07:28.679Z,54.42
2018-03-02T10:08:28.828Z,53.38
2018-03-02T10:09:28.971Z,52.81
2018-03-02T10:10:29.110Z,52.53
2018-03-02T10:11:29.318Z,52.91
2018-03-02T10:12:29.650Z,53.00
2018-03-02T10:13:29.556Z,52.91
2018-03-02T10:14:29.716Z,53.10
2018-03-02T10:15:29.849Z,52.62
2018-03-02T10:16:29.990Z,52.62
2018-03-02T10:17:30.144Z,52.91
2018-03-02T10:19:30.420Z,52.81
2018-03-02T10:20:30.565Z,52.81
2018-03-02T10:21:30.713Z,52.81
2018-03-02T10:22:30.857Z,52.72
2018-03-02T10:23:31.006Z,52.81
2018-03-02T10:24:31.150Z,53.00
2018-03-02T10:25:31.299Z,53.38
2018-03-02T10:26:31.448Z,53.19
2018-03-02T10:27:31.606Z,53.47
2018-03-02T10:28:31.737Z,54.04
2018-03-02T10:29:31.884Z,53.85
2018-03-02T10:30:32.033Z,54.33
2018-03-02T10:31:32.175Z,54.33
2018-03-02T10:32:32.321Z,54.14
2018-03-02T10:34:32.611Z,53.10
2018-03-02T10:35:32.755Z,53.00
2018-03-02T10:36:32.899Z,52.81
2018-03-02T10:37:33.046Z,52.81
2018-03-02T10:38:33.192Z,52.81
2018-03-02T10:39:33.337Z,53.10
2018-03-02T10:40:33.491Z,52.28
2018-03-02T10:41:33.640Z,52.37
2018-03-02T10:42:33.780Z,52.06
2018-03-02T10:43:33.922Z,52.06
2018-03-02T10:44:34.075Z,52.06
2018-03-02T10:45:34.221Z,52.15
2018-03-02T10:46:34.362Z,53.00
2018-03-02T10:47:34.506Z,52.62
2018-03-02T10:48:34.650Z,53.29
2018-03-02T10:49:34.800Z,52.81
2018-03-02T10:50:34.943Z,52.91
2018-03-02T10:51:35.089Z,53.29
2018-03-02T10:52:35.254Z,53.10
2018-03-02T10:53:35.413Z,52.62
2018-03-02T10:54:35.562Z,52.72
2018-03-02T10:55:35.713Z,52.81
2018-03-02T10:56:35.857Z,52.81
2018-03-02T10:57:36.000Z,53.29
2018-03-02T10:58:36.160Z,52.81
2018-03-02T10:59:36.289Z,52.81
2018-03-02T11:00:36.436Z,53.00
2018-03-02T11:01:36.584Z,53.13
2018-03-02T11:02:36.727Z,52.84
2018-03-02T11:03:36.871Z,52.18
2018-03-02T11:04:37.017Z,52.34
2018-03-02T11:05:37.162Z,52.34
2018-03-02T11:06:37.311Z,52.62
2018-03-02T11:07:37.450Z,52.81
2018-03-02T11:08:37.596Z,53.29
2018-03-02T11:09:37.751Z,53.22
2018-03-02T11:10:37.886Z,52.84
2018-03-02T11:11:38.033Z,52.75
2018-03-02T11:12:38.181Z,52.18
2018-03-02T11:13:38.324Z,52.09
2018-03-02T11:14:38.469Z,51.90
2018-03-02T11:15:38.616Z,51.71
2018-03-02T11:16:38.759Z,51.71
2018-03-02T11:17:38.907Z,51.52
2018-03-02T11:18:39.052Z,51.43
2018-03-02T11:19:39.203Z,51.24
2018-03-02T11:20:39.349Z,51.05
2018-03-02T11:21:39.493Z,51.33
2018-03-02T11:22:39.638Z,51.14
2018-03-02T11:23:39.786Z,51.43
2018-03-02T11:24:39.929Z,51.05
2018-03-02T11:25:40.079Z,51.14
2018-03-02T11:26:40.224Z,50.48
2018-03-02T11:27:40.368Z,50.32
2018-03-02T11:28:40.515Z,49.91
2018-03-02T11:29:40.661Z,49.94
2018-03-02T11:30:40.809Z,49.47
2018-03-02T11:31:40.958Z,49.19
2018-03-02T11:32:41.107Z,49.00
2018-03-02T11:33:41.255Z,49.19
2018-03-02T11:34:41.396Z,49.66
2018-03-02T11:35:41.551Z,49.19
2018-03-02T11:36:41.692Z,49.19
2018-03-02T11:37:41.833Z,48.43
2018-03-02T11:38:41.989Z,48.34
2018-03-02T11:39:42.139Z,48.43
2018-03-02T11:40:42.297Z,49.19
2018-03-02T11:41:42.424Z,48.90
2018-03-02T11:42:42.570Z,49.47
2018-03-02T11:43:42.724Z,49.16
2018-03-02T11:44:42.866Z,49.35
2018-03-02T11:45:43.036Z,49.54
2018-03-02T11:46:43.187Z,49.85
2018-03-02T11:47:43.327Z,49.57
2018-03-02T11:48:43.489Z,49.47
2018-03-02T11:49:43.646Z,49.19
2018-03-02T11:50:43.829Z,48.90
2018-03-02T11:51:43.920Z,48.34
2018-03-02T11:53:44.206Z,47.20
2018-03-02T11:54:44.385Z,47.58
2018-03-02T11:55:44.532Z,47.20
2018-03-02T11:56:44.667Z,47.11
2018-03-02T11:57:44.811Z,46.83
2018-03-02T11:58:44.954Z,47.30
2018-03-02T11:59:45.106Z,47.11
2018-03-02T12:00:45.248Z,47.30
2018-03-02T12:01:45.394Z,47.20
2018-03-02T12:02:45.561Z,47.11
2018-03-02T12:03:45.679Z,47.67
2018-03-02T12:05:45.979Z,48.43
2018-03-02T12:06:46.110Z,48.24
2018-03-02T12:08:46.397Z,48.05
2018-03-02T12:09:46.541Z,48.34
2018-03-02T12:10:46.692Z,48.24
2018-03-02T12:11:46.833Z,47.86
2018-03-02T12:12:46.992Z,47.96
2018-03-02T12:13:47.147Z,48.15
2018-03-02T12:14:47.278Z,47.86
2018-03-02T12:15:47.427Z,47.77
2018-03-02T12:16:47.645Z,47.86
2018-03-02T12:17:47.716Z,47.39
2018-03-02T12:18:47.867Z,47.39
2018-03-02T12:19:48.006Z,47.30
2018-03-02T12:20:48.154Z,46.83
2018-03-02T12:21:48.309Z,46.83
2018-03-02T12:22:48.514Z,46.73
2018-03-02T12:23:48.583Z,46.55
2018-03-02T12:24:48.732Z,46.17
2018-03-02T12:25:48.883Z,46.26
2018-03-02T12:26:49.037Z,46.45
2018-03-02T12:27:49.176Z,46.26
2018-03-02T12:28:49.319Z,46.07
2018-03-02T12:29:49.467Z,46.17
2018-03-02T12:30:49.615Z,46.26
2018-03-02T12:31:49.765Z,46.73
2018-03-02T12:32:49.919Z,46.36
2018-03-02T12:33:50.059Z,46.64
2018-03-02T12:34:50.205Z,46.07
2018-03-02T12:35:50.351Z,46.26
2018-03-02T12:36:50.509Z,46.17
2018-03-02T12:37:50.648Z,46.26
2018-03-02T12:38:50.869Z,46.26
2018-03-02T12:39:50.940Z,46.07
2018-03-02T12:40:51.086Z,45.88
2018-03-02T12:41:51.236Z,46.17
2018-03-02T12:42:51.387Z,46.17
2018-03-02T12:43:51.515Z,46.07
2018-03-02T12:44:51.665Z,46.26
2018-03-02T12:45:51.811Z,46.26
2018-03-02T12:46:51.958Z,46.45
2018-03-02T12:47:52.105Z,46.07
2018-03-02T12:48:52.266Z,45.69
2018-03-02T12:49:52.410Z,45.69
2018-03-02T12:50:52.547Z,45.60
2018-03-02T12:51:52.705Z,45.98
2018-03-02T12:52:52.841Z,46.36
2018-03-02T12:53:52.991Z,46.45
2018-03-02T12:54:53.138Z,46.73
2018-03-02T12:55:53.278Z,47.11
2018-03-02T12:56:53.429Z,47.02
2018-03-02T12:57:53.580Z,47.30
2018-03-02T12:58:53.722Z,47.11
2018-03-02T12:59:53.871Z,47.30
2018-03-02T13:00:54.021Z,47.49
2018-03-02T13:01:54.176Z,47.30
2018-03-02T13:02:54.312Z,47.58
2018-03-02T13:03:54.459Z,47.30